Time;durP1;ratioP1;P1;durP2;ratioP2;P2;SDS_P1;SDS_P2;PMS_P1;PMS_P2;Temp;Humidity;BMP_temperature;BMP_pressure;BME280_temperature;BME280_humidity;BME280_pressure;Samples;Min_cycle;Max_cycle;Signal;HPM_P1;HPM_P2
2022/11/17 00:01:30;;;;;;;;;;;;;;;;;;5094853;28;19996;-27
2022/11/17 00:03:56;;;;;;;;;;;;;;;;;;5094539;28;19912;-30
2022/11/17 00:06:22;;;;;;;;;;;;;;;;;;5094569;28;19955;-24
2022/11/17 00:08:48;;;;;;;;;;;;;;;;;;5095961;28;19932;-24
2022/11/17 00:11:14;;;;;;;;;;;;;;;;;;5098684;28;20023;-27
2022/11/17 00:16:25;;;;;;;;;;;;;;;;;;5098404;28;20310;-26
2022/11/17 00:21:35;;;;;;;;;;;;;;;;;;5098246;28;19965;-26
2022/11/17 00:24:01;;;;;;;;;;;;;;;;;;5098139;28;19912;-28
2022/11/17 00:26:27;;;;;;;;;;;;;;;;;;5098138;28;19944;-25
2022/11/17 00:28:53;;;;;;;;;;;;;;;;;;5098338;28;19969;-29
2022/11/17 00:34:04;;;;;;;;;;;;;;;;;;5098197;28;19962;-24
2022/11/17 00:36:30;;;;;;;;;;;;;;;;;;5097988;28;20378;-30
2022/11/17 00:38:56;;;;;;;;;;;;;;;;;;5097757;28;20237;-27
2022/11/17 00:41:22;;;;;;;;;;;;;;;;;;5097893;28;19909;-24
2022/11/17 00:43:48;;;;;;;;;;;;;;;;;;5097758;28;20258;-27
2022/11/17 00:46:14;;;;;;;;;;;;;;;;;;5098000;28;19912;-26
2022/11/17 00:48:40;;;;;;;;;;;;;;;;;;5097684;28;20346;-27
2022/11/17 00:51:06;;;;;;;;;;;;;;;;;;5097607;28;19912;-26
2022/11/17 00:53:32;;;;;;;;;;;;;;;;;;5097548;28;19913;-26
2022/11/17 00:55:58;;;;;;;;;;;;;;;;;;5097552;28;20211;-26
2022/11/17 00:58:24;;;;;;;;;;;;;;;;;;5097803;28;19912;-23
2022/11/17 01:00:50;;;;;;;;;;;;;;;;;;5097469;28;19991;-30
2022/11/17 01:03:16;;;;;;;;;;;;;;;;;;5097375;28;19931;-25
2022/11/17 01:05:42;;;;;;;;;;;;;;;;;;5097406;28;19919;-27
2022/11/17 01:08:08;;;;;;;;;;;;;;;;;;5097419;28;19908;-28
2022/11/17 01:10:34;;;;;;;;;;;;;;;;;;5097089;28;19997;-26
2022/11/17 01:13:00;;;;;;;;;;;;;;;;;;5097201;28;19912;-27
2022/11/17 01:15:26;;;;;;;;;;;;;;;;;;5097227;28;19999;-29
2022/11/17 01:17:52;;;;;;;;;;;;;;;;;;5097411;28;20201;-28
2022/11/17 01:20:18;;;;;;;;;;;;;;;;;;5096695;28;19908;-26
2022/11/17 01:22:44;;;;;;;;;;;;;;;;;;5097073;28;19924;-24
2022/11/17 01:25:10;;;;;;;;;;;;;;;;;;5097259;28;20340;-25
2022/11/17 01:27:36;;;;;;;;;;;;;;;;;;5097029;28;19954;-28
2022/11/17 01:30:02;;;;;;;;;;;;;;;;;;5096851;28;19978;-25
2022/11/17 01:32:28;;;;;;;;;;;;;;;;;;5096780;28;19912;-24
2022/11/17 01:34:54;;;;;;;;;;;;;;;;;;5097037;28;20250;-25
2022/11/17 01:37:20;;;;;;;;;;;;;;;;;;5096778;28;19912;-28
2022/11/17 01:39:46;;;;;;;;;;;;;;;;;;5096771;28;20253;-23
2022/11/17 01:42:12;;;;;;;;;;;;;;;;;;5095703;28;20335;-27
2022/11/17 01:44:38;;;;;;;;;;;;;;;;;;5096622;28;19912;-27
2022/11/17 01:47:04;;;;;;;;;;;;;;;;;;5096613;28;19954;-26
2022/11/17 01:49:30;;;;;;;;;;;;;;;;;;5096428;28;19912;-23
2022/11/17 01:51:56;;;;;;;;;;;;;;;;;;5096377;28;19912;-26
2022/11/17 01:54:22;;;;;;;;;;;;;;;;;;5096727;28;19920;-28
2022/11/17 01:56:48;;;;;;;;;;;;;;;;;;5096634;28;19965;-27
2022/11/17 01:59:14;;;;;;;;;;;;;;;;;;5096378;28;20308;-27
2022/11/17 02:01:54;;;;;;;;;;;;;;;;;;5096371;28;19995;-26
2022/11/17 02:04:20;;;;;;;;;;;;;;;;;;5096248;28;19927;-27
2022/11/17 02:06:46;;;;;;;;;;;;;;;;;;5096439;28;19908;-26
2022/11/17 02:09:12;;;;;;;;;;;;;;;;;;5095912;28;19955;-25
2022/11/17 02:11:38;;;;;;;;;;;;;;;;;;5096257;28;19964;-26
2022/11/17 02:14:04;;;;;;;;;;;;;;;;;;5095994;28;19916;-25
2022/11/17 02:16:30;;;;;;;;;;;;;;;;;;5096273;28;19916;-27
2022/11/17 02:18:56;;;;;;;;;;;;;;;;;;5096027;28;20370;-25
2022/11/17 02:21:22;;;;;;;;;;;;;;;;;;5095964;28;19961;-27
2022/11/17 02:23:48;;;;;;;;;;;;;;;;;;5095861;28;20358;-24
2022/11/17 02:26:14;;;;;;;;;;;;;;;;;;5096109;28;19915;-24
2022/11/17 02:28:40;;;;;;;;;;;;;;;;;;5095806;28;19969;-30
2022/11/17 02:31:06;;;;;;;;;;;;;;;;;;5094964;28;20230;-23
2022/11/17 02:33:32;;;;;;;;;;;;;;;;;;5095597;28;19913;-26
2022/11/17 02:35:58;;;;;;;;;;;;;;;;;;5095705;28;19912;-25
2022/11/17 02:38:24;;;;;;;;;;;;;;;;;;5095929;28;19912;-24
2022/11/17 02:40:50;;;;;;;;;;;;;;;;;;5095862;28;19943;-27
2022/11/17 02:46:21;;;;;;;;;;;;;;;;;;5033824;28;19939;-24
2022/11/17 02:48:47;;;;;;;;;;;;;;;;;;5033674;28;20020;-28
2022/11/17 02:51:13;;;;;;;;;;;;;;;;;;5062547;28;19916;-30
2022/11/17 02:53:39;;;;;;;;;;;;;;;;;;5095304;28;20065;-30
2022/11/17 02:56:05;;;;;;;;;;;;;;;;;;5095608;28;20234;-28
2022/11/17 02:58:31;;;;;;;;;;;;;;;;;;5095315;28;19916;-27
2022/11/17 03:00:57;;;;;;;;;;;;;;;;;;5095207;28;19907;-27
2022/11/17 03:03:23;;;;;;;;;;;;;;;;;;5095182;28;19916;-23
2022/11/17 03:05:49;;;;;;;;;;;;;;;;;;5095761;28;19919;-26
2022/11/17 03:08:15;;;;;;;;;;;;;;;;;;5095217;28;19966;-26
2022/11/17 03:10:41;;;;;;;;;;;;;;;;;;5094881;28;19963;-30
2022/11/17 03:13:07;;;;;;;;;;;;;;;;;;5095242;28;19957;-26
2022/11/17 03:15:34;;;;;;;;;;;;;;;;;;5095347;28;20255;-23
2022/11/17 03:18:00;;;;;;;;;;;;;;;;;;5095062;28;19923;-29
2022/11/17 03:20:26;;;;;;;;;;;;;;;;;;5095040;28;20247;-26
2022/11/17 03:22:52;;;;;;;;;;;;;;;;;;5094951;28;19919;-30
2022/11/17 03:25:18;;;;;;;;;;;;;;;;;;5095038;28;20007;-24
2022/11/17 03:27:44;;;;;;;;;;;;;;;;;;5094977;28;19955;-29
2022/11/17 03:30:10;;;;;;;;;;;;;;;;;;5094831;28;19916;-26
2022/11/17 03:32:36;;;;;;;;;;;;;;;;;;5094804;28;20305;-24
2022/11/17 03:35:02;;;;;;;;;;;;;;;;;;5094846;28;19999;-27
2022/11/17 03:37:28;;;;;;;;;;;;;;;;;;5094874;28;19915;-24
2022/11/17 03:39:54;;;;;;;;;;;;;;;;;;5095111;28;19920;-23
2022/11/17 03:42:20;;;;;;;;;;;;;;;;;;5094659;28;19912;-26
2022/11/17 03:44:46;;;;;;;;;;;;;;;;;;5099197;28;19919;-24
2022/11/17 03:47:12;;;;;;;;;;;;;;;;;;5098933;28;20259;-28
2022/11/17 03:49:38;;;;;;;;;;;;;;;;;;5098755;28;19912;-24
2022/11/17 03:52:04;;;;;;;;;;;;;;;;;;5098753;28;20303;-23
2022/11/17 03:54:30;;;;;;;;;;;;;;;;;;5098735;28;19912;-24
2022/11/17 03:56:56;;;;;;;;;;;;;;;;;;5098729;28;20258;-25
2022/11/17 03:59:22;;;;;;;;;;;;;;;;;;5098902;28;19971;-30
2022/11/17 04:01:48;;;;;;;;;;;;;;;;;;5098602;28;19915;-29
2022/11/17 04:04:14;;;;;;;;;;;;;;;;;;5098664;28;20006;-24
2022/11/17 04:06:40;;;;;;;;;;;;;;;;;;5098519;28;19916;-25
2022/11/17 04:09:06;;;;;;;;;;;;;;;;;;5098454;28;20315;-23
2022/11/17 04:17:02;;;;;;;;;;;;;;;;;;5098374;28;19965;-24
2022/11/17 04:19:28;;;;;;;;;;;;;;;;;;5098320;28;20296;-23
2022/11/17 04:21:54;;;;;;;;;;;;;;;;;;5098166;28;20261;-26
2022/11/17 04:24:20;;;;;;;;;;;;;;;;;;5098511;28;19909;-30
2022/11/17 04:29:32;;;;;;;;;;;;;;;;;;5098068;28;19970;-26
2022/11/17 04:31:58;;;;;;;;;;;;;;;;;;5097918;28;19912;-23
2022/11/17 04:34:25;;;;;;;;;;;;;;;;;;5098677;28;19916;-25
2022/11/17 04:36:51;;;;;;;;;;;;;;;;;;5097890;28;19911;-26
2022/11/17 04:39:16;;;;;;;;;;;;;;;;;;5098235;28;19908;-25
2022/11/17 04:42:02;;;;;;;;;;;;;;;;;;5097766;28;19912;-33
2022/11/17 04:44:28;;;;;;;;;;;;;;;;;;5098026;28;19923;-29
2022/11/17 04:46:54;;;;;;;;;;;;;;;;;;5097669;28;20262;-26
2022/11/17 04:49:20;;;;;;;;;;;;;;;;;;5097936;28;19998;-25
2022/11/17 04:51:46;;;;;;;;;;;;;;;;;;5097441;28;20324;-27
2022/11/17 04:54:12;;;;;;;;;;;;;;;;;;5096464;28;19912;-27
2022/11/17 04:56:38;;;;;;;;;;;;;;;;;;5097656;28;20250;-24
2022/11/17 04:59:04;;;;;;;;;;;;;;;;;;5097503;28;19919;-26
2022/11/17 05:04:12;;;;;;;;;;;;;;;;;;4562813;26;20273;-24
2022/11/17 05:06:38;;;;;;;;;;;;;;;;;;4978327;28;19915;-24
2022/11/17 05:09:04;;;;;;;;;;;;;;;;;;4978020;28;19921;-24
2022/11/17 05:14:15;;;;;;;;;;;;;;;;;;4958777;29;19946;-24
2022/11/17 05:19:26;;;;;;;;;;;;;;;;;;4958676;29;19973;-24
2022/11/17 05:21:52;;;;;;;;;;;;;;;;;;4957194;28;20365;-24
2022/11/17 05:24:18;;;;;;;;;;;;;;;;;;4958624;29;19914;-24
2022/11/17 05:26:44;;;;;;;;;;;;;;;;;;4958252;29;19915;-24
2022/11/17 05:29:09;;;;;;;;;;;;;;;;;;4958175;29;19915;-24
2022/11/17 05:31:35;;;;;;;;;;;;;;;;;;4958052;29;19918;-23
2022/11/17 05:34:01;;;;;;;;;;;;;;;;;;4956876;28;20345;-24
2022/11/17 05:36:27;;;;;;;;;;;;;;;;;;4958113;29;19910;-24
2022/11/17 05:38:53;;;;;;;;;;;;;;;;;;4957047;29;20368;-23
2022/11/17 05:41:19;;;;;;;;;;;;;;;;;;4958400;29;19911;-23
2022/11/17 05:43:45;;;;;;;;;;;;;;;;;;4957983;28;19957;-27
2022/11/17 05:46:11;;;;;;;;;;;;;;;;;;4957846;29;19914;-24
2022/11/17 05:48:37;;;;;;;;;;;;;;;;;;4957289;29;20407;-24
2022/11/17 05:51:03;;;;;;;;;;;;;;;;;;4957382;29;19915;-24
2022/11/17 05:53:29;;;;;;;;;;;;;;;;;;4957615;28;19962;-23
2022/11/17 05:55:55;;;;;;;;;;;;;;;;;;4957779;29;19945;-24
2022/11/17 05:58:21;;;;;;;;;;;;;;;;;;4957517;29;19914;-23
2022/11/17 06:00:47;;;;;;;;;;;;;;;;;;4956416;29;20053;-24
2022/11/17 06:03:13;;;;;;;;;;;;;;;;;;4957146;28;20021;-23
2022/11/17 06:05:39;;;;;;;;;;;;;;;;;;4957703;28;19961;-24
2022/11/17 06:08:05;;;;;;;;;;;;;;;;;;4957787;29;19914;-24
2022/11/17 06:10:31;;;;;;;;;;;;;;;;;;4956489;29;19985;-23
2022/11/17 06:12:57;;;;;;;;;;;;;;;;;;4957363;28;20330;-24
2022/11/17 06:15:23;;;;;;;;;;;;;;;;;;4957412;29;19915;-24
2022/11/17 06:17:49;;;;;;;;;;;;;;;;;;4957263;29;19922;-24
2022/11/17 06:20:15;;;;;;;;;;;;;;;;;;4956186;29;19973;-24
2022/11/17 06:22:41;;;;;;;;;;;;;;;;;;4957789;28;19914;-24
2022/11/17 06:25:07;;;;;;;;;;;;;;;;;;4956280;29;20249;-25
2022/11/17 06:27:33;;;;;;;;;;;;;;;;;;4957298;29;19910;-23
2022/11/17 06:29:59;;;;;;;;;;;;;;;;;;4956842;29;20329;-23
2022/11/17 06:32:25;;;;;;;;;;;;;;;;;;4956901;28;19915;-24
2022/11/17 06:34:51;;;;;;;;;;;;;;;;;;4956766;29;19915;-24
2022/11/17 06:37:17;;;;;;;;;;;;;;;;;;4956889;29;19915;-24
2022/11/17 06:39:43;;;;;;;;;;;;;;;;;;4957067;29;19915;-24
2022/11/17 06:42:09;;;;;;;;;;;;;;;;;;4956714;28;19961;-24
2022/11/17 06:44:35;;;;;;;;;;;;;;;;;;4956981;29;19911;-23
2022/11/17 06:47:01;;;;;;;;;;;;;;;;;;4956503;29;19914;-24
2022/11/17 06:49:27;;;;;;;;;;;;;;;;;;4957362;28;19911;-24
2022/11/17 06:51:54;;;;;;;;;;;;;;;;;;4956422;28;19922;-24
2022/11/17 06:54:20;;;;;;;;;;;;;;;;;;4955466;29;19922;-24
2022/11/17 06:56:48;;;;;;;;;;;;;;;;;;4956517;29;19915;-23
2022/11/17 06:59:14;;;;;;;;;;;;;;;;;;4956405;28;20009;-23
2022/11/17 07:01:41;;;;;;;;;;;;;;;;;;4956599;28;19948;-24
2022/11/17 07:04:07;;;;;;;;;;;;;;;;;;4956127;28;19922;-24
2022/11/17 07:06:33;;;;;;;;;;;;;;;;;;4956550;28;19915;-24
2022/11/17 07:08:59;;;;;;;;;;;;;;;;;;4956561;29;19926;-24
2022/11/17 07:11:25;;;;;;;;;;;;;;;;;;4956272;29;20341;-24
2022/11/17 07:13:51;;;;;;;;;;;;;;;;;;4955874;28;19910;-24
2022/11/17 07:16:19;;;;;;;;;;;;;;;;;;4955831;29;19910;-25
2022/11/17 07:18:45;;;;;;;;;;;;;;;;;;4955487;28;19926;-25
2022/11/17 07:21:11;;;;;;;;;;;;;;;;;;4955802;29;19914;-24
2022/11/17 07:23:37;;;;;;;;;;;;;;;;;;4954679;28;19984;-24
2022/11/17 07:26:03;;;;;;;;;;;;;;;;;;4955567;29;19914;-24
2022/11/17 07:28:29;;;;;;;;;;;;;;;;;;4955690;29;19925;-24
2022/11/17 07:30:55;;;;;;;;;;;;;;;;;;4955600;29;20005;-24
2022/11/17 07:33:21;;;;;;;;;;;;;;;;;;4955739;28;20001;-24
2022/11/17 07:35:47;;;;;;;;;;;;;;;;;;4955743;29;20324;-24
2022/11/17 07:38:13;;;;;;;;;;;;;;;;;;4955070;29;19969;-24
2022/11/17 07:40:39;;;;;;;;;;;;;;;;;;4956325;29;19914;-24
2022/11/17 07:43:05;;;;;;;;;;;;;;;;;;4956316;28;19914;-24
2022/11/17 07:45:31;;;;;;;;;;;;;;;;;;4956089;29;20096;-24
2022/11/17 07:47:57;;;;;;;;;;;;;;;;;;4956208;29;20020;-24
2022/11/17 07:50:24;;;;;;;;;;;;;;;;;;4955102;29;19922;-26
2022/11/17 07:52:50;;;;;;;;;;;;;;;;;;4956053;28;19922;-24
2022/11/17 07:55:16;;;;;;;;;;;;;;;;;;4955118;29;19914;-24
2022/11/17 07:57:42;;;;;;;;;;;;;;;;;;4956511;29;19911;-24
2022/11/17 08:00:08;;;;;;;;;;;;;;;;;;4956159;29;19914;-24
2022/11/17 08:02:34;;;;;;;;;;;;;;;;;;4954603;28;19930;-24
2022/11/17 08:05:00;;;;;;;;;;;;;;;;;;4956039;28;20183;-24
2022/11/17 08:07:26;;;;;;;;;;;;;;;;;;4956263;29;19922;-24
2022/11/17 08:09:52;;;;;;;;;;;;;;;;;;4955953;29;20024;-24
2022/11/17 08:12:18;;;;;;;;;;;;;;;;;;4955818;28;19911;-24
2022/11/17 08:14:44;;;;;;;;;;;;;;;;;;4956326;29;20076;-24
2022/11/17 08:17:10;;;;;;;;;;;;;;;;;;4956090;29;19914;-24
2022/11/17 08:19:36;;;;;;;;;;;;;;;;;;4955819;29;19964;-24
2022/11/17 08:22:02;;;;;;;;;;;;;;;;;;4955137;28;19914;-23
2022/11/17 08:24:28;;;;;;;;;;;;;;;;;;4956002;29;19915;-30
2022/11/17 08:26:54;;;;;;;;;;;;;;;;;;4955630;29;19926;-23
2022/11/17 08:29:20;;;;;;;;;;;;;;;;;;4956308;28;19914;-23
2022/11/17 08:31:46;;;;;;;;;;;;;;;;;;4959085;28;19915;-23
2022/11/17 08:34:12;;;;;;;;;;;;;;;;;;4958828;28;20353;-23
2022/11/17 08:36:39;;;;;;;;;;;;;;;;;;4959024;29;19907;-23
2022/11/17 08:39:05;;;;;;;;;;;;;;;;;;4957859;29;19946;-23
2022/11/17 08:41:31;;;;;;;;;;;;;;;;;;4958153;29;19914;-24
2022/11/17 08:43:57;;;;;;;;;;;;;;;;;;4958824;28;19922;-25
2022/11/17 08:46:24;;;;;;;;;;;;;;;;;;4959090;29;19910;-25
2022/11/17 08:48:50;;;;;;;;;;;;;;;;;;4959234;28;19911;-25
2022/11/17 08:51:16;;;;;;;;;;;;;;;;;;4958325;29;19973;-25
2022/11/17 08:53:42;;;;;;;;;;;;;;;;;;4958702;28;19914;-25
2022/11/17 08:56:08;;;;;;;;;;;;;;;;;;4958890;29;19911;-25
2022/11/17 08:58:34;;;;;;;;;;;;;;;;;;4958765;29;19985;-25
2022/11/17 09:01:00;;;;;;;;;;;;;;;;;;4958288;29;20377;-25
2022/11/17 09:03:26;;;;;;;;;;;;;;;;;;4958190;28;20345;-25
2022/11/17 09:05:52;;;;;;;;;;;;;;;;;;4958398;29;19918;-24
2022/11/17 09:08:18;;;;;;;;;;;;;;;;;;4958384;29;20345;-24
2022/11/17 09:10:48;;;;;;;;;;;;;;;;;;4958572;29;20013;-24
2022/11/17 09:13:14;;;;;;;;;;;;;;;;;;4958355;28;19918;-24
2022/11/17 09:15:40;;;;;;;;;;;;;;;;;;4959307;29;20022;-24
2022/11/17 09:18:06;;;;;;;;;;;;;;;;;;4958528;29;19914;-24
2022/11/17 09:20:32;;;;;;;;;;;;;;;;;;4958321;29;19936;-24
2022/11/17 09:22:58;;;;;;;;;;;;;;;;;;4958430;28;20298;-24
2022/11/17 09:25:24;;;;;;;;;;;;;;;;;;4958421;29;19918;-24
2022/11/17 09:27:51;;;;;;;;;;;;;;;;;;4958064;28;19965;-24
2022/11/17 09:30:20;;;;;;;;;;;;;;;;;;4956872;29;20270;-24
2022/11/17 09:32:47;;;;;;;;;;;;;;;;;;4958147;28;19998;-24
2022/11/17 09:35:13;;;;;;;;;;;;;;;;;;4957180;29;20262;-24
2022/11/17 09:37:39;;;;;;;;;;;;;;;;;;4958018;29;19957;-24
2022/11/17 09:40:05;;;;;;;;;;;;;;;;;;4956267;28;19914;-24
2022/11/17 09:42:31;;;;;;;;;;;;;;;;;;4957770;28;19911;-23
2022/11/17 09:44:57;;;;;;;;;;;;;;;;;;4956552;29;20067;-23
2022/11/17 09:47:24;;;;;;;;;;;;;;;;;;4957376;29;19933;-23
2022/11/17 09:49:50;;;;;;;;;;;;;;;;;;4956203;29;19914;-23
2022/11/17 09:52:16;;;;;;;;;;;;;;;;;;4957337;28;20238;-24
2022/11/17 09:54:42;;;;;;;;;;;;;;;;;;4957211;29;19918;-24
2022/11/17 09:57:08;;;;;;;;;;;;;;;;;;4957200;29;19922;-24
2022/11/17 09:59:34;;;;;;;;;;;;;;;;;;4957237;29;19936;-24
2022/11/17 10:02:00;;;;;;;;;;;;;;;;;;4957149;28;20337;-24
2022/11/17 10:04:26;;;;;;;;;;;;;;;;;;4957012;29;20013;-24
2022/11/17 10:06:52;;;;;;;;;;;;;;;;;;4957160;29;20019;-24
2022/11/17 10:09:18;;;;;;;;;;;;;;;;;;4957055;29;20006;-24
2022/11/17 10:11:44;;;;;;;;;;;;;;;;;;4957097;28;19974;-24
2022/11/17 10:14:11;;;;;;;;;;;;;;;;;;4955997;29;20305;-24
2022/11/17 10:16:37;;;;;;;;;;;;;;;;;;4956904;29;19907;-24
2022/11/17 10:19:03;;;;;;;;;;;;;;;;;;4956326;29;20346;-24
2022/11/17 10:21:29;;;;;;;;;;;;;;;;;;4956834;29;19917;-24
2022/11/17 10:23:55;;;;;;;;;;;;;;;;;;4957129;28;20405;-24
2022/11/17 10:26:21;;;;;;;;;;;;;;;;;;4957012;29;19914;-23
2022/11/17 10:28:47;;;;;;;;;;;;;;;;;;4957038;29;19921;-24
2022/11/17 10:31:13;;;;;;;;;;;;;;;;;;4957314;29;19918;-24
2022/11/17 10:33:39;;;;;;;;;;;;;;;;;;4956934;28;19965;-24
2022/11/17 10:36:05;;;;;;;;;;;;;;;;;;4956995;29;19915;-23
2022/11/17 10:38:32;;;;;;;;;;;;;;;;;;4957177;29;20261;-24
2022/11/17 10:40:59;;;;;;;;;;;;;;;;;;4955932;29;19910;-24
2022/11/17 10:43:25;;;;;;;;;;;;;;;;;;4956710;28;19929;-23
2022/11/17 10:45:51;;;;;;;;;;;;;;;;;;4956780;29;19918;-24
2022/11/17 10:48:17;;;;;;;;;;;;;;;;;;4956929;29;19914;-23
2022/11/17 10:50:43;;;;;;;;;;;;;;;;;;4956668;29;20013;-23
2022/11/17 10:53:09;;;;;;;;;;;;;;;;;;4955712;28;19960;-23
2022/11/17 10:55:35;;;;;;;;;;;;;;;;;;4956584;29;19915;-23
2022/11/17 10:58:01;;;;;;;;;;;;;;;;;;4956896;28;20050;-24
2022/11/17 11:00:27;;;;;;;;;;;;;;;;;;4956713;29;19922;-24
2022/11/17 11:02:53;;;;;;;;;;;;;;;;;;4956165;28;19937;-24
2022/11/17 11:05:20;;;;;;;;;;;;;;;;;;4956536;29;19910;-24
2022/11/17 11:07:46;;;;;;;;;;;;;;;;;;4956367;28;19915;-23
2022/11/17 11:10:12;;;;;;;;;;;;;;;;;;4956270;29;19924;-23
2022/11/17 11:12:40;;;;;;;;;;;;;;;;;;4954498;28;21219;-23
2022/11/17 11:15:07;;;;;;;;;;;;;;;;;;4956870;29;19931;-24
2022/11/17 11:17:33;;;;;;;;;;;;;;;;;;4956359;28;19930;-24
2022/11/17 11:19:59;;;;;;;;;;;;;;;;;;4956376;29;19914;-24
2022/11/17 11:22:26;;;;;;;;;;;;;;;;;;4956621;28;19977;-24
2022/11/17 11:24:52;;;;;;;;;;;;;;;;;;4956344;28;19914;-24
2022/11/17 11:27:18;;;;;;;;;;;;;;;;;;4956247;29;19926;-23
2022/11/17 11:29:44;;;;;;;;;;;;;;;;;;4956142;29;19921;-24
2022/11/17 11:32:10;;;;;;;;;;;;;;;;;;4956207;28;19953;-24
2022/11/17 11:34:36;;;;;;;;;;;;;;;;;;4956322;29;19914;-24
2022/11/17 11:37:02;;;;;;;;;;;;;;;;;;4956122;29;20053;-24
2022/11/17 11:39:28;;;;;;;;;;;;;;;;;;4956746;29;19974;-25
2022/11/17 11:41:54;;;;;;;;;;;;;;;;;;4956252;28;19915;-24
2022/11/17 11:44:20;;;;;;;;;;;;;;;;;;4956128;29;20371;-24
2022/11/17 11:46:46;;;;;;;;;;;;;;;;;;4955993;29;19915;-25
2022/11/17 11:49:12;;;;;;;;;;;;;;;;;;4956530;29;19989;-23
2022/11/17 11:51:38;;;;;;;;;;;;;;;;;;4954799;29;20353;-23
2022/11/17 11:54:04;;;;;;;;;;;;;;;;;;4954616;28;20032;-23
2022/11/17 11:56:31;;;;;;;;;;;;;;;;;;4955164;29;19914;-23
2022/11/17 11:58:57;;;;;;;;;;;;;;;;;;4955481;28;19973;-23
2022/11/17 12:01:23;;;;;;;;;;;;;;;;;;4955325;29;19922;-23
2022/11/17 12:03:49;;;;;;;;;;;;;;;;;;4956866;28;20000;-23
2022/11/17 12:09:00;;;;;;;;;;;;;;;;;;4959260;29;20368;-23
2022/11/17 12:14:10;;;;;;;;;;;;;;;;;;4959455;29;20265;-24
2022/11/17 12:16:38;;;;;;;;;;;;;;;;;;4958004;29;19914;-23
2022/11/17 12:19:04;;;;;;;;;;;;;;;;;;4958876;28;19981;-23
2022/11/17 12:21:30;;;;;;;;;;;;;;;;;;4958876;29;20001;-24
2022/11/17 12:23:56;;;;;;;;;;;;;;;;;;4959207;28;20058;-23
2022/11/17 12:26:23;;;;;;;;;;;;;;;;;;4959399;29;19921;-24
2022/11/17 12:28:48;;;;;;;;;;;;;;;;;;4959239;29;19911;-24
2022/11/17 12:31:14;;;;;;;;;;;;;;;;;;4959201;29;19923;-24
2022/11/17 12:33:40;;;;;;;;;;;;;;;;;;4959052;28;19982;-24
2022/11/17 12:36:06;;;;;;;;;;;;;;;;;;4959107;29;19910;-23
2022/11/17 12:38:32;;;;;;;;;;;;;;;;;;4960385;29;20354;-23
2022/11/17 12:40:58;;;;;;;;;;;;;;;;;;4958181;29;19922;-25
2022/11/17 12:43:24;;;;;;;;;;;;;;;;;;4958492;28;20385;-24
2022/11/17 12:45:50;;;;;;;;;;;;;;;;;;4959358;29;20054;-25
2022/11/17 12:48:16;;;;;;;;;;;;;;;;;;4959025;29;19985;-24
2022/11/17 12:50:42;;;;;;;;;;;;;;;;;;4959187;29;19935;-24
2022/11/17 12:53:10;;;;;;;;;;;;;;;;;;4958856;28;19939;-24
2022/11/17 12:55:36;;;;;;;;;;;;;;;;;;4959283;28;20320;-23
2022/11/17 12:58:02;;;;;;;;;;;;;;;;;;4959295;29;20025;-24
2022/11/17 13:00:28;;;;;;;;;;;;;;;;;;4959071;29;19921;-23
2022/11/17 13:02:54;;;;;;;;;;;;;;;;;;4957644;28;19926;-26
2022/11/17 13:05:20;;;;;;;;;;;;;;;;;;4959173;29;19914;-24
2022/11/17 13:07:46;;;;;;;;;;;;;;;;;;4958718;29;20391;-24
2022/11/17 13:10:12;;;;;;;;;;;;;;;;;;4958876;29;19970;-24
2022/11/17 13:12:38;;;;;;;;;;;;;;;;;;4958554;28;19910;-24
2022/11/17 13:15:04;;;;;;;;;;;;;;;;;;4958043;28;20362;-23
2022/11/17 13:17:30;;;;;;;;;;;;;;;;;;4958463;29;19911;-24
2022/11/17 13:19:56;;;;;;;;;;;;;;;;;;4958638;29;19987;-24
2022/11/17 13:22:23;;;;;;;;;;;;;;;;;;4958237;28;19914;-24
2022/11/17 13:24:49;;;;;;;;;;;;;;;;;;4958293;28;20350;-23
2022/11/17 13:27:14;;;;;;;;;;;;;;;;;;4958632;29;19926;-24
2022/11/17 13:29:40;;;;;;;;;;;;;;;;;;4958373;29;19973;-24
2022/11/17 13:32:07;;;;;;;;;;;;;;;;;;4957211;28;19962;-24
2022/11/17 13:34:33;;;;;;;;;;;;;;;;;;4958277;29;19914;-24
2022/11/17 13:36:59;;;;;;;;;;;;;;;;;;4958182;29;19917;-24
2022/11/17 13:39:26;;;;;;;;;;;;;;;;;;4958371;29;19949;-25
2022/11/17 13:41:52;;;;;;;;;;;;;;;;;;4958097;28;19915;-27
2022/11/17 13:44:18;;;;;;;;;;;;;;;;;;4957031;29;19954;-23
2022/11/17 13:46:44;;;;;;;;;;;;;;;;;;4957955;29;19911;-23
2022/11/17 13:49:10;;;;;;;;;;;;;;;;;;4958026;29;19914;-25
2022/11/17 13:51:39;;;;;;;;;;;;;;;;;;4957882;29;19921;-25
2022/11/17 13:54:05;;;;;;;;;;;;;;;;;;4957780;28;20361;-22
2022/11/17 13:56:32;;;;;;;;;;;;;;;;;;4958036;28;19918;-24
2022/11/17 13:58:58;;;;;;;;;;;;;;;;;;4957758;29;19954;-23
2022/11/17 14:01:26;;;;;;;;;;;;;;;;;;4957486;29;19910;-23
2022/11/17 14:03:52;;;;;;;;;;;;;;;;;;4957442;28;19966;-23
2022/11/17 14:06:18;;;;;;;;;;;;;;;;;;4957865;28;20309;-23
2022/11/17 14:08:44;;;;;;;;;;;;;;;;;;4957940;29;19914;-23
2022/11/17 14:11:10;;;;;;;;;;;;;;;;;;4956728;29;19915;-23
2022/11/17 14:13:36;;;;;;;;;;;;;;;;;;4957552;28;20446;-23
2022/11/17 14:16:02;;;;;;;;;;;;;;;;;;4957898;29;19990;-23
2022/11/17 14:18:28;;;;;;;;;;;;;;;;;;4957017;29;19946;-23
2022/11/17 14:20:54;;;;;;;;;;;;;;;;;;4957129;29;19914;-24
2022/11/17 14:23:20;;;;;;;;;;;;;;;;;;4957174;28;19985;-24
2022/11/17 14:25:52;;;;;;;;;;;;;;;;;;4956251;29;19942;-23
2022/11/17 14:28:17;;;;;;;;;;;;;;;;;;4956196;28;19914;-24
2022/11/17 14:30:44;;;;;;;;;;;;;;;;;;4957019;29;19914;-24
2022/11/17 14:33:10;;;;;;;;;;;;;;;;;;4957210;28;19960;-24
2022/11/17 14:35:36;;;;;;;;;;;;;;;;;;4957473;29;19914;-24
2022/11/17 14:38:02;;;;;;;;;;;;;;;;;;4957035;29;19998;-23
2022/11/17 14:40:28;;;;;;;;;;;;;;;;;;4957249;29;19922;-23
2022/11/17 14:42:54;;;;;;;;;;;;;;;;;;4957438;28;20068;-24
2022/11/17 14:45:20;;;;;;;;;;;;;;;;;;4956998;29;19973;-23
2022/11/17 14:47:46;;;;;;;;;;;;;;;;;;4956914;29;20000;-23
2022/11/17 14:50:14;;;;;;;;;;;;;;;;;;4956934;29;19918;-24
2022/11/17 14:52:41;;;;;;;;;;;;;;;;;;4956745;28;19957;-24
2022/11/17 14:55:07;;;;;;;;;;;;;;;;;;4957031;28;20005;-24
2022/11/17 14:57:33;;;;;;;;;;;;;;;;;;4956763;29;19914;-23
2022/11/17 14:59:59;;;;;;;;;;;;;;;;;;4957086;29;19925;-24
2022/11/17 15:02:25;;;;;;;;;;;;;;;;;;4956445;28;19933;-24
2022/11/17 15:04:51;;;;;;;;;;;;;;;;;;4956987;29;19925;-24
2022/11/17 15:07:17;;;;;;;;;;;;;;;;;;4956676;29;19911;-23
2022/11/17 15:09:43;;;;;;;;;;;;;;;;;;4956545;29;20409;-23
2022/11/17 15:12:09;;;;;;;;;;;;;;;;;;4956627;28;19926;-24
2022/11/17 15:14:35;;;;;;;;;;;;;;;;;;4956574;29;20001;-24
2022/11/17 15:17:01;;;;;;;;;;;;;;;;;;4956621;29;19956;-24
2022/11/17 15:19:27;;;;;;;;;;;;;;;;;;4956919;29;19914;-24
2022/11/17 15:21:53;;;;;;;;;;;;;;;;;;4956450;28;20009;-24
2022/11/17 15:24:19;;;;;;;;;;;;;;;;;;4955383;29;20009;-24
2022/11/17 15:26:45;;;;;;;;;;;;;;;;;;4955898;29;19919;-23
2022/11/17 15:29:11;;;;;;;;;;;;;;;;;;4956551;28;19914;-23
2022/11/17 15:31:37;;;;;;;;;;;;;;;;;;4956144;29;20231;-23
2022/11/17 15:34:03;;;;;;;;;;;;;;;;;;4956986;28;19925;-23
2022/11/17 15:36:30;;;;;;;;;;;;;;;;;;4956386;29;19910;-24
2022/11/17 15:38:56;;;;;;;;;;;;;;;;;;4958248;28;19922;-24
2022/11/17 15:41:22;;;;;;;;;;;;;;;;;;4960317;29;20273;-24
2022/11/17 15:43:48;;;;;;;;;;;;;;;;;;4960479;28;19997;-24
2022/11/17 15:46:14;;;;;;;;;;;;;;;;;;4960327;29;19972;-24
2022/11/17 15:48:43;;;;;;;;;;;;;;;;;;4960099;29;19949;-24
2022/11/17 15:51:09;;;;;;;;;;;;;;;;;;4958849;29;20258;-23
2022/11/17 15:53:35;;;;;;;;;;;;;;;;;;4958893;28;19922;-23
2022/11/17 15:56:01;;;;;;;;;;;;;;;;;;4960015;29;19915;-24
2022/11/17 15:58:27;;;;;;;;;;;;;;;;;;4959987;29;19918;-24
2022/11/17 16:00:55;;;;;;;;;;;;;;;;;;4959762;29;19977;-24
2022/11/17 16:03:21;;;;;;;;;;;;;;;;;;4959708;28;19923;-24
2022/11/17 16:05:47;;;;;;;;;;;;;;;;;;4959568;29;19926;-24
2022/11/17 16:08:13;;;;;;;;;;;;;;;;;;4959927;29;19911;-24
2022/11/17 16:10:39;;;;;;;;;;;;;;;;;;4958575;29;19946;-23
2022/11/17 16:13:05;;;;;;;;;;;;;;;;;;4959712;28;19915;-23
2022/11/17 16:15:31;;;;;;;;;;;;;;;;;;4959255;29;19981;-23
2022/11/17 16:17:57;;;;;;;;;;;;;;;;;;4959378;29;19915;-24
2022/11/17 16:20:23;;;;;;;;;;;;;;;;;;4958988;29;19914;-23
2022/11/17 16:22:49;;;;;;;;;;;;;;;;;;4958943;28;19953;-24
2022/11/17 16:25:15;;;;;;;;;;;;;;;;;;4959010;29;19955;-24
2022/11/17 16:27:41;;;;;;;;;;;;;;;;;;4959184;29;19965;-24
2022/11/17 16:30:07;;;;;;;;;;;;;;;;;;4958784;29;20008;-23
2022/11/17 16:32:33;;;;;;;;;;;;;;;;;;4959227;28;19923;-28
2022/11/17 16:34:59;;;;;;;;;;;;;;;;;;4958910;29;19921;-24
2022/11/17 16:37:24;;;;;;;;;;;;;;;;;;4958891;29;19918;-24
2022/11/17 16:39:50;;;;;;;;;;;;;;;;;;4957985;29;20269;-23
2022/11/17 16:42:17;;;;;;;;;;;;;;;;;;4959087;28;20349;-24
2022/11/17 16:44:43;;;;;;;;;;;;;;;;;;4959028;28;19911;-24
2022/11/17 16:47:09;;;;;;;;;;;;;;;;;;4959130;29;19945;-23
2022/11/17 16:49:35;;;;;;;;;;;;;;;;;;4958657;28;19918;-24
2022/11/17 16:52:01;;;;;;;;;;;;;;;;;;4958657;28;19914;-24
2022/11/17 16:54:27;;;;;;;;;;;;;;;;;;4959358;29;20005;-23
2022/11/17 16:56:53;;;;;;;;;;;;;;;;;;4957780;29;20326;-24
2022/11/17 16:59:19;;;;;;;;;;;;;;;;;;4958601;29;19915;-24
2022/11/17 17:01:46;;;;;;;;;;;;;;;;;;4957498;28;20345;-24
2022/11/17 17:04:12;;;;;;;;;;;;;;;;;;4958634;28;19922;-24
2022/11/17 17:06:38;;;;;;;;;;;;;;;;;;4958836;29;20065;-23
2022/11/17 17:09:04;;;;;;;;;;;;;;;;;;4958466;29;19997;-23
2022/11/17 17:11:30;;;;;;;;;;;;;;;;;;4958680;29;19915;-24